PWSweather.com
Personal Weather Stations
Station Observations
79674
AfterstegDE 79674

AfterstegDE 79674

Lat: 47.84344, Lon: 7.92844

Elevation: 809

Station Type: Davis Vantage 2 Aktive

Latest ConditionsUpdated 4:42:08 AM GMT+01:01 Thursday, Oct 23, 2014
Currently Today's Max Today's Min Today's Average
Temperature 39.2°F4.0°C 39.6°F4.2°C 38.5°F3.6°C 39.2°F4.0°C
Dew Point 36.3°F2.4°C 36.9°F2.7°C 35.6°F2.0°C 36.4°F2.4°C
Winds 2.0 mph N3.2 kmh N 6.9 mph NNW11.1 kmh NNW - 3.6 mph 5.8 kmh
Wind Gusts 2.9 mph4.7 kmh 8.9 mph14.3 kmh - -
Humidity 89% 90% 89% 89%
Pressure 30.30 in1026.1 mb 30.30 in1026.1 mb 30.26 in1024.7 mb -
Precipitation - 0.08 in2.0 mm - -
Hour Temp Dew Point Humidity Winds Wind Gusts Pressure Precip Precip Rate Daily Precip Total
04:42 AM 39.2°F4.0°C 36.3°F2.4°C 89% 2.0 mph N3.2 kmh N 2.9 mph4.7 kmh 30.30 in1026.1 mb 0.00 in0.0 mm 0.00 in/hr0.0 mm/hr 0.08 in2.0 mm
04:37 AM 39.2°F4.0°C 36.3°F2.4°C 89% 2.0 mph N3.2 kmh N -- 30.30 in1026.1 mb 0.00 in0.0 mm 0.00 in/hr0.0 mm/hr 0.07 in1.8 mm
04:32 AM 39.2°F4.0°C 36.3°F2.4°C 89% 2.0 mph NW3.2 kmh NW 4.0 mph6.4 kmh 30.30 in1026.1 mb 0.00 in0.0 mm 0.00 in/hr0.0 mm/hr 0.07 in1.8 mm
04:27 AM 39.2°F4.0°C 36.3°F2.4°C 89% 0.9 mph N1.4 kmh N 0.9 mph1.4 kmh 30.30 in1026.1 mb 0.00 in0.0 mm 0.00 in/hr0.0 mm/hr 0.07 in1.8 mm
04:22 AM 39.4°F4.1°C 36.5°F2.5°C 89% 2.0 mph NNW3.2 kmh NNW 2.0 mph3.2 kmh 30.30 in1026.1 mb 0.00 in0.0 mm 0.00 in/hr0.0 mm/hr 0.07 in1.8 mm
04:17 AM 39.4°F4.1°C 36.5°F2.5°C 89% 2.9 mph NNW4.7 kmh NNW 4.0 mph6.4 kmh 30.30 in1026.1 mb 0.00 in0.0 mm 0.00 in/hr0.0 mm/hr 0.07 in1.8 mm
04:12 AM 39.4°F4.1°C 36.5°F2.5°C 89% 4.0 mph N6.4 kmh N 2.9 mph4.7 kmh 30.30 in1026.1 mb 0.00 in0.0 mm 0.00 in/hr0.0 mm/hr 0.07 in1.8 mm
04:07 AM 39.4°F4.1°C 36.5°F2.5°C 89% 2.9 mph NNW4.7 kmh NNW 2.9 mph4.7 kmh 30.30 in1026.1 mb 0.00 in0.0 mm 0.00 in/hr0.0 mm/hr 0.07 in1.8 mm
04:02 AM 39.4°F4.1°C 36.5°F2.5°C 89% 2.9 mph NW4.7 kmh NW 2.0 mph3.2 kmh 30.30 in1026.1 mb 0.00 in0.0 mm 0.00 in/hr0.0 mm/hr 0.07 in1.8 mm
03:57 AM 39.6°F4.2°C 36.5°F2.5°C 89% 2.9 mph NW4.7 kmh NW 4.9 mph7.9 kmh 30.30 in1026.1 mb 0.00 in0.0 mm 0.00 in/hr0.0 mm/hr 0.07 in1.8 mm
03:52 AM 39.6°F4.2°C 36.5°F2.5°C 89% 4.9 mph NW7.9 kmh NW 0.9 mph1.4 kmh 30.29 in1025.7 mb 0.00 in0.0 mm 0.00 in/hr0.0 mm/hr 0.07 in1.8 mm
03:47 AM 39.6°F4.2°C 36.5°F2.5°C 89% 4.9 mph NW7.9 kmh NW 2.9 mph4.7 kmh 30.29 in1025.7 mb 0.00 in0.0 mm 0.00 in/hr0.0 mm/hr 0.07 in1.8 mm
03:42 AM 39.6°F4.2°C 36.5°F2.5°C 89% 4.9 mph N7.9 kmh N 4.0 mph6.4 kmh 30.30 in1026.1 mb 0.00 in0.0 mm 0.00 in/hr0.0 mm/hr 0.07 in1.8 mm
03:37 AM 39.6°F4.2°C 36.9°F2.7°C 90% 4.9 mph NW7.9 kmh NW 6.0 mph9.7 kmh 30.29 in1025.7 mb 0.00 in0.0 mm 0.00 in/hr0.0 mm/hr 0.07 in1.8 mm
03:32 AM 39.4°F4.1°C 36.5°F2.5°C 89% 4.9 mph NW7.9 kmh NW 4.0 mph6.4 kmh 30.29 in1025.7 mb 0.00 in0.0 mm 0.00 in/hr0.0 mm/hr 0.07 in1.8 mm
03:27 AM 39.4°F4.1°C 36.7°F2.6°C 90% 4.0 mph NNW6.4 kmh NNW 8.1 mph13.0 kmh 30.29 in1025.7 mb 0.00 in0.0 mm 0.00 in/hr0.0 mm/hr 0.07 in1.8 mm
03:22 AM 39.4°F4.1°C 36.7°F2.6°C 90% 4.0 mph W6.4 kmh W 2.0 mph3.2 kmh 30.30 in1026.1 mb 0.00 in0.0 mm 0.00 in/hr0.0 mm/hr 0.07 in1.8 mm
03:17 AM 39.4°F4.1°C 36.7°F2.6°C 90% 4.9 mph NW7.9 kmh NW 6.9 mph11.1 kmh 30.29 in1025.7 mb 0.00 in0.0 mm 0.00 in/hr0.0 mm/hr 0.07 in1.8 mm
03:12 AM 39.6°F4.2°C 36.9°F2.7°C 90% 4.9 mph NW7.9 kmh NW 6.9 mph11.1 kmh 30.29 in1025.7 mb 0.00 in0.0 mm 0.00 in/hr0.0 mm/hr 0.06 in1.5 mm
03:07 AM 39.6°F4.2°C 36.9°F2.7°C 90% 4.9 mph N7.9 kmh N 2.0 mph3.2 kmh 30.29 in1025.7 mb 0.00 in0.0 mm 0.00 in/hr0.0 mm/hr 0.06 in1.5 mm
03:02 AM 39.6°F4.2°C 36.9°F2.7°C 90% 4.9 mph NE7.9 kmh NE 2.9 mph4.7 kmh 30.29 in1025.7 mb 0.00 in0.0 mm 0.00 in/hr0.0 mm/hr 0.06 in1.5 mm
02:57 AM 39.4°F4.1°C 36.7°F2.6°C 90% 4.9 mph NW7.9 kmh NW 6.9 mph11.1 kmh 30.29 in1025.7 mb 0.00 in0.0 mm 0.00 in/hr0.0 mm/hr 0.06 in1.5 mm
02:52 AM 39.4°F4.1°C 36.7°F2.6°C 90% 4.0 mph N6.4 kmh N 8.9 mph14.3 kmh 30.29 in1025.7 mb 0.00 in0.0 mm 0.00 in/hr0.0 mm/hr 0.06 in1.5 mm
02:47 AM 39.4°F4.1°C 36.7°F2.6°C 90% 4.0 mph NW6.4 kmh NW -- 30.29 in1025.7 mb 0.00 in0.0 mm 0.00 in/hr0.0 mm/hr 0.06 in1.5 mm
02:37 AM 39.4°F4.1°C 36.7°F2.6°C 90% 2.0 mph N3.2 kmh N 2.9 mph4.7 kmh 30.29 in1025.7 mb 0.00 in0.0 mm 0.00 in/hr0.0 mm/hr 0.06 in1.5 mm
02:32 AM 39.2°F4.0°C 36.5°F2.5°C 90% 2.0 mph NNW3.2 kmh NNW 4.0 mph6.4 kmh 30.29 in1025.7 mb 0.00 in0.0 mm 0.00 in/hr0.0 mm/hr 0.06 in1.5 mm
02:27 AM 39.2°F4.0°C 36.5°F2.5°C 90% 2.0 mph N3.2 kmh N 2.9 mph4.7 kmh 30.29 in1025.7 mb 0.00 in0.0 mm 0.00 in/hr0.0 mm/hr 0.06 in1.5 mm
02:22 AM 39.0°F3.9°C 36.3°F2.4°C 90% 0.9 mph NNW1.4 kmh NNW 4.0 mph6.4 kmh 30.29 in1025.7 mb 0.00 in0.0 mm 0.00 in/hr0.0 mm/hr 0.06 in1.5 mm
02:17 AM 38.8°F3.8°C 36.1°F2.3°C 90% 0.9 mph NW1.4 kmh NW -- 30.29 in1025.7 mb 0.00 in0.0 mm 0.00 in/hr0.0 mm/hr 0.06 in1.5 mm
02:12 AM 38.7°F3.7°C 36.0°F2.2°C 90% 0.9 mph NW1.4 kmh NW 0.9 mph1.4 kmh 30.29 in1025.7 mb 0.00 in0.0 mm 0.00 in/hr0.0 mm/hr 0.06 in1.5 mm
02:07 AM 38.7°F3.7°C 36.0°F2.2°C 90% 0.9 mph NW1.4 kmh NW 0.9 mph1.4 kmh 30.29 in1025.7 mb 0.00 in0.0 mm 0.00 in/hr0.0 mm/hr 0.06 in1.5 mm
02:02 AM 38.5°F3.6°C 35.8°F2.1°C 90% 0.9 mph NW1.4 kmh NW -- 30.29 in1025.7 mb 0.00 in0.0 mm 0.00 in/hr0.0 mm/hr 0.06 in1.5 mm
01:57 AM 38.5°F3.6°C 35.8°F2.1°C 90% 0.9 mph NW1.4 kmh NW -- 30.29 in1025.7 mb 0.03 in0.8 mm 0.00 in/hr0.0 mm/hr 0.06 in1.5 mm
01:52 AM 38.5°F3.6°C 35.6°F2.0°C 89% 2.0 mph NNW3.2 kmh NNW -- 30.29 in1025.7 mb 0.05 in1.3 mm 0.00 in/hr0.0 mm/hr 0.06 in1.5 mm
01:47 AM 38.5°F3.6°C 35.6°F2.0°C 89% 2.9 mph N4.7 kmh N 0.9 mph1.4 kmh 30.29 in1025.7 mb 0.10 in2.5 mm 0.00 in/hr0.0 mm/hr 0.06 in1.5 mm
01:42 AM 38.7°F3.7°C 35.8°F2.1°C 89% 4.0 mph NW6.4 kmh NW 4.0 mph6.4 kmh 30.29 in1025.7 mb 0.17 in4.3 mm 0.00 in/hr0.0 mm/hr 0.05 in1.3 mm
01:37 AM 39.0°F3.9°C 36.1°F2.3°C 89% 4.9 mph NNW7.9 kmh NNW 2.0 mph3.2 kmh 30.29 in1025.7 mb 0.31 in7.9 mm 1.44 in/hr36.6 mm/hr 0.03 in0.8 mm
01:32 AM 39.2°F4.0°C 36.3°F2.4°C 89% 4.9 mph NW7.9 kmh NW 6.0 mph9.7 kmh 30.29 in1025.7 mb 0.19 in4.8 mm 2.28 in/hr57.9 mm/hr 0.02 in0.5 mm
01:27 AM 39.4°F4.1°C 36.5°F2.5°C 89% 4.0 mph WNW6.4 kmh WNW 8.1 mph13.0 kmh 30.29 in1025.7 mb 0.00 in0.0 mm 0.00 in/hr0.0 mm/hr 0.02 in0.5 mm
01:22 AM 39.4°F4.1°C 36.5°F2.5°C 89% 4.0 mph N6.4 kmh N 6.0 mph9.7 kmh 30.28 in1025.4 mb 0.00 in0.0 mm 0.00 in/hr0.0 mm/hr 0.02 in0.5 mm
01:17 AM 39.2°F4.0°C 36.5°F2.5°C 90% 4.0 mph SW6.4 kmh SW 2.0 mph3.2 kmh 30.28 in1025.4 mb 0.00 in0.0 mm 0.00 in/hr0.0 mm/hr 0.02 in0.5 mm
01:12 AM 39.2°F4.0°C 36.5°F2.5°C 90% 4.0 mph NNW6.4 kmh NNW 4.0 mph6.4 kmh 30.28 in1025.4 mb 0.03 in0.8 mm 0.00 in/hr0.0 mm/hr 0.02 in0.5 mm
01:07 AM 39.0°F3.9°C 36.3°F2.4°C 90% 4.9 mph 7.9 kmh 2.0 mph3.2 kmh 30.28 in1025.4 mb 0.05 in1.3 mm 0.00 in/hr0.0 mm/hr 0.02 in0.5 mm
01:02 AM 39.0°F3.9°C 36.3°F2.4°C 90% 4.0 mph NW6.4 kmh NW 2.9 mph4.7 kmh 30.28 in1025.4 mb 0.06 in1.5 mm 0.07 in/hr1.8 mm/hr 0.02 in0.5 mm
12:57 AM 39.0°F3.9°C 36.3°F2.4°C 90% 4.9 mph NNW7.9 kmh NNW 2.0 mph3.2 kmh 30.27 in1025.1 mb 0.00 in0.0 mm 0.00 in/hr0.0 mm/hr 0.01 in0.3 mm
12:52 AM 39.2°F4.0°C 36.5°F2.5°C 90% 4.9 mph NW7.9 kmh NW 4.0 mph6.4 kmh 30.28 in1025.4 mb 0.00 in0.0 mm 0.00 in/hr0.0 mm/hr 0.01 in0.3 mm
12:47 AM 39.2°F4.0°C 36.3°F2.4°C 89% 4.0 mph NW6.4 kmh NW 6.0 mph9.7 kmh 30.28 in1025.4 mb 0.00 in0.0 mm 0.00 in/hr0.0 mm/hr 0.00 in0.0 mm
12:42 AM 39.2°F4.0°C 36.3°F2.4°C 89% 4.0 mph NW6.4 kmh NW 2.9 mph4.7 kmh 30.27 in1025.1 mb 0.00 in0.0 mm 0.00 in/hr0.0 mm/hr 0.00 in0.0 mm
12:37 AM 39.2°F4.0°C 36.3°F2.4°C 89% 4.0 mph NW6.4 kmh NW 2.9 mph4.7 kmh 30.27 in1025.1 mb 0.00 in0.0 mm 0.00 in/hr0.0 mm/hr 0.00 in0.0 mm
12:32 AM 39.2°F4.0°C 36.3°F2.4°C 89% 4.0 mph NNW6.4 kmh NNW 0.9 mph1.4 kmh 30.27 in1025.1 mb 0.00 in0.0 mm 0.00 in/hr0.0 mm/hr 0.00 in0.0 mm
12:27 AM 39.4°F4.1°C 36.5°F2.5°C 89% 4.9 mph NW7.9 kmh NW 0.9 mph1.4 kmh 30.27 in1025.1 mb 0.00 in0.0 mm 0.00 in/hr0.0 mm/hr 0.00 in0.0 mm
12:22 AM 39.4°F4.1°C 36.5°F2.5°C 89% 4.9 mph NW7.9 kmh NW 2.9 mph4.7 kmh 30.27 in1025.1 mb 0.00 in0.0 mm 0.00 in/hr0.0 mm/hr 0.00 in0.0 mm
12:17 AM 39.4°F4.1°C 36.5°F2.5°C 89% 6.0 mph NW9.7 kmh NW 2.9 mph4.7 kmh 30.27 in1025.1 mb 0.00 in0.0 mm 0.00 in/hr0.0 mm/hr 0.00 in0.0 mm
12:12 AM 39.4°F4.1°C 36.5°F2.5°C 89% 6.9 mph NNW11.1 kmh NNW 6.9 mph11.1 kmh 30.26 in1024.7 mb 0.00 in0.0 mm 0.00 in/hr0.0 mm/hr 0.00 in0.0 mm
12:07 AM 39.4°F4.1°C 36.5°F2.5°C 89% 6.0 mph NW9.7 kmh NW 8.9 mph14.3 kmh 30.26 in1024.7 mb 0.00 in0.0 mm 0.00 in/hr0.0 mm/hr 0.00 in0.0 mm
12:02 AM 39.2°F4.0°C 36.3°F2.4°C 89% 4.9 mph NW7.9 kmh NW 4.9 mph7.9 kmh 30.26 in1024.7 mb 0.00 in0.0 mm 0.00 in/hr0.0 mm/hr 0.00 in0.0 mm